sensor_id;sensor_type;location;lat;lon;timestamp;temperature;humidity
48836;DHT22;62581;47.342;7.908;2024-03-22T00:02:15;11.30;99.90
48836;DHT22;62581;47.342;7.908;2024-03-22T00:04:41;11.30;99.90
48836;DHT22;62581;47.342;7.908;2024-03-22T00:07:08;11.20;99.90
48836;DHT22;62581;47.342;7.908;2024-03-22T00:09:34;11.20;99.90
48836;DHT22;62581;47.342;7.908;2024-03-22T00:12:01;11.10;99.90
48836;DHT22;62581;47.342;7.908;2024-03-22T00:14:27;11.10;99.90
48836;DHT22;62581;47.342;7.908;2024-03-22T00:16:56;11.00;99.90
48836;DHT22;62581;47.342;7.908;2024-03-22T00:19:22;10.90;99.90
48836;DHT22;62581;47.342;7.908;2024-03-22T00:21:49;10.90;99.90
48836;DHT22;62581;47.342;7.908;2024-03-22T00:24:15;10.80;99.90
48836;DHT22;62581;47.342;7.908;2024-03-22T00:26:42;10.70;99.90
48836;DHT22;62581;47.342;7.908;2024-03-22T00:29:08;10.70;99.90
48836;DHT22;62581;47.342;7.908;2024-03-22T00:31:35;10.70;99.90
48836;DHT22;62581;47.342;7.908;2024-03-22T00:34:02;10.60;99.90
48836;DHT22;62581;47.342;7.908;2024-03-22T00:36:29;10.60;99.90
48836;DHT22;62581;47.342;7.908;2024-03-22T00:38:55;10.60;99.90
48836;DHT22;62581;47.342;7.908;2024-03-22T00:41:22;10.60;99.90
48836;DHT22;62581;47.342;7.908;2024-03-22T00:43:48;10.50;99.90
48836;DHT22;62581;47.342;7.908;2024-03-22T00:46:16;10.40;99.90
48836;DHT22;62581;47.342;7.908;2024-03-22T00:48:41;10.30;99.90
48836;DHT22;62581;47.342;7.908;2024-03-22T00:51:10;10.20;99.90
48836;DHT22;62581;47.342;7.908;2024-03-22T00:53:36;10.10;99.90
48836;DHT22;62581;47.342;7.908;2024-03-22T00:56:04;10.10;99.90
48836;DHT22;62581;47.342;7.908;2024-03-22T00:58:30;10.00;99.90
48836;DHT22;62581;47.342;7.908;2024-03-22T01:00:57;10.20;99.90
48836;DHT22;62581;47.342;7.908;2024-03-22T01:03:23;10.10;99.90
48836;DHT22;62581;47.342;7.908;2024-03-22T01:05:50;10.10;99.90
48836;DHT22;62581;47.342;7.908;2024-03-22T01:08:17;10.00;99.90
48836;DHT22;62581;47.342;7.908;2024-03-22T01:10:45;10.00;99.90
48836;DHT22;62581;47.342;7.908;2024-03-22T01:13:11;9.90;99.90
48836;DHT22;62581;47.342;7.908;2024-03-22T01:15:38;9.90;99.90
48836;DHT22;62581;47.342;7.908;2024-03-22T01:18:04;9.90;99.90
48836;DHT22;62581;47.342;7.908;2024-03-22T01:20:31;9.90;99.90
48836;DHT22;62581;47.342;7.908;2024-03-22T01:22:59;9.80;99.90
48836;DHT22;62581;47.342;7.908;2024-03-22T01:25:27;9.80;99.90
48836;DHT22;62581;47.342;7.908;2024-03-22T01:27:54;9.80;99.90
48836;DHT22;62581;47.342;7.908;2024-03-22T01:30:21;9.80;99.90
48836;DHT22;62581;47.342;7.908;2024-03-22T01:32:47;9.80;99.90
48836;DHT22;62581;47.342;7.908;2024-03-22T01:35:15;9.80;99.90
48836;DHT22;62581;47.342;7.908;2024-03-22T01:37:41;9.80;99.90
48836;DHT22;62581;47.342;7.908;2024-03-22T01:40:08;9.70;99.90
48836;DHT22;62581;47.342;7.908;2024-03-22T01:42:36;9.70;99.90
48836;DHT22;62581;47.342;7.908;2024-03-22T01:45:03;9.80;99.90
48836;DHT22;62581;47.342;7.908;2024-03-22T01:47:30;9.80;99.90
48836;DHT22;62581;47.342;7.908;2024-03-22T01:49:57;9.70;99.90
48836;DHT22;62581;47.342;7.908;2024-03-22T01:52:24;9.70;99.90
48836;DHT22;62581;47.342;7.908;2024-03-22T01:54:51;9.70;99.90
48836;DHT22;62581;47.342;7.908;2024-03-22T01:57:17;9.70;99.90
48836;DHT22;62581;47.342;7.908;2024-03-22T01:59:46;9.70;99.90
48836;DHT22;62581;47.342;7.908;2024-03-22T02:02:15;9.60;99.90
48836;DHT22;62581;47.342;7.908;2024-03-22T02:04:42;9.60;99.90
48836;DHT22;62581;47.342;7.908;2024-03-22T02:07:08;9.60;99.90
48836;DHT22;62581;47.342;7.908;2024-03-22T02:09:35;9.60;99.90
48836;DHT22;62581;47.342;7.908;2024-03-22T02:12:03;9.40;99.90
48836;DHT22;62581;47.342;7.908;2024-03-22T02:14:30;9.30;99.90
48836;DHT22;62581;47.342;7.908;2024-03-22T02:16:57;9.20;99.90
48836;DHT22;62581;47.342;7.908;2024-03-22T02:19:24;9.20;99.90
48836;DHT22;62581;47.342;7.908;2024-03-22T02:21:50;9.20;99.90
48836;DHT22;62581;47.342;7.908;2024-03-22T02:24:18;9.10;99.90
48836;DHT22;62581;47.342;7.908;2024-03-22T02:26:44;9.00;99.90
48836;DHT22;62581;47.342;7.908;2024-03-22T02:29:11;9.00;99.90
48836;DHT22;62581;47.342;7.908;2024-03-22T02:31:37;9.00;99.90
48836;DHT22;62581;47.342;7.908;2024-03-22T02:34:04;8.90;99.90
48836;DHT22;62581;47.342;7.908;2024-03-22T02:36:30;8.80;99.90
48836;DHT22;62581;47.342;7.908;2024-03-22T02:38:57;8.80;99.90
48836;DHT22;62581;47.342;7.908;2024-03-22T02:41:25;8.70;99.90
48836;DHT22;62581;47.342;7.908;2024-03-22T02:43:52;8.70;99.90
48836;DHT22;62581;47.342;7.908;2024-03-22T02:46:18;8.70;99.90
48836;DHT22;62581;47.342;7.908;2024-03-22T02:48:44;8.60;99.90
48836;DHT22;62581;47.342;7.908;2024-03-22T02:51:11;8.60;99.90
48836;DHT22;62581;47.342;7.908;2024-03-22T02:53:38;8.60;99.90
48836;DHT22;62581;47.342;7.908;2024-03-22T02:56:04;8.40;99.90
48836;DHT22;62581;47.342;7.908;2024-03-22T02:58:32;8.50;99.90
48836;DHT22;62581;47.342;7.908;2024-03-22T03:01:00;8.50;99.90
48836;DHT22;62581;47.342;7.908;2024-03-22T03:03:28;8.40;99.90
48836;DHT22;62581;47.342;7.908;2024-03-22T03:05:54;8.30;99.90
48836;DHT22;62581;47.342;7.908;2024-03-22T03:08:21;8.20;99.90
48836;DHT22;62581;47.342;7.908;2024-03-22T03:10:47;8.20;99.90
48836;DHT22;62581;47.342;7.908;2024-03-22T03:13:14;8.20;99.90
48836;DHT22;62581;47.342;7.908;2024-03-22T03:15:41;8.10;99.90
48836;DHT22;62581;47.342;7.908;2024-03-22T03:18:08;8.10;99.90
48836;DHT22;62581;47.342;7.908;2024-03-22T03:20:34;8.10;99.90
48836;DHT22;62581;47.342;7.908;2024-03-22T03:23:01;8.10;99.90
48836;DHT22;62581;47.342;7.908;2024-03-22T03:25:27;8.10;99.90
48836;DHT22;62581;47.342;7.908;2024-03-22T03:27:54;8.10;99.90
48836;DHT22;62581;47.342;7.908;2024-03-22T03:30:20;8.10;99.90
48836;DHT22;62581;47.342;7.908;2024-03-22T03:32:49;8.10;99.90
48836;DHT22;62581;47.342;7.908;2024-03-22T03:35:15;8.10;99.90
48836;DHT22;62581;47.342;7.908;2024-03-22T03:37:42;8.10;99.90
48836;DHT22;62581;47.342;7.908;2024-03-22T03:40:08;8.20;99.90
48836;DHT22;62581;47.342;7.908;2024-03-22T03:42:35;8.20;99.90
48836;DHT22;62581;47.342;7.908;2024-03-22T03:45:01;8.20;99.90
48836;DHT22;62581;47.342;7.908;2024-03-22T03:47:28;8.20;99.90
48836;DHT22;62581;47.342;7.908;2024-03-22T03:49:56;8.20;99.90
48836;DHT22;62581;47.342;7.908;2024-03-22T03:52:23;8.20;99.90
48836;DHT22;62581;47.342;7.908;2024-03-22T03:54:49;8.20;99.90
48836;DHT22;62581;47.342;7.908;2024-03-22T03:57:16;8.20;99.90
48836;DHT22;62581;47.342;7.908;2024-03-22T03:59:42;8.30;99.90
48836;DHT22;62581;47.342;7.908;2024-03-22T04:02:09;8.30;99.90
48836;DHT22;62581;47.342;7.908;2024-03-22T04:04:35;8.30;99.90
48836;DHT22;62581;47.342;7.908;2024-03-22T04:07:04;8.30;99.90
48836;DHT22;62581;47.342;7.908;2024-03-22T04:09:30;8.30;99.90
48836;DHT22;62581;47.342;7.908;2024-03-22T04:11:57;8.30;99.90
48836;DHT22;62581;47.342;7.908;2024-03-22T04:14:24;8.40;99.90
48836;DHT22;62581;47.342;7.908;2024-03-22T04:16:51;8.40;99.90
48836;DHT22;62581;47.342;7.908;2024-03-22T04:19:17;8.40;99.90
48836;DHT22;62581;47.342;7.908;2024-03-22T04:21:44;8.40;99.90
48836;DHT22;62581;47.342;7.908;2024-03-22T04:24:11;8.40;99.90
48836;DHT22;62581;47.342;7.908;2024-03-22T04:26:38;8.40;99.90
48836;DHT22;62581;47.342;7.908;2024-03-22T04:29:04;8.50;99.90
48836;DHT22;62581;47.342;7.908;2024-03-22T04:31:31;8.40;99.90
48836;DHT22;62581;47.342;7.908;2024-03-22T04:33:57;8.50;99.90
48836;DHT22;62581;47.342;7.908;2024-03-22T04:36:24;8.50;99.90
48836;DHT22;62581;47.342;7.908;2024-03-22T04:38:50;8.50;99.90
48836;DHT22;62581;47.342;7.908;2024-03-22T04:41:19;8.50;99.90
48836;DHT22;62581;47.342;7.908;2024-03-22T04:43:46;8.50;99.90
48836;DHT22;62581;47.342;7.908;2024-03-22T04:46:12;8.50;99.90
48836;DHT22;62581;47.342;7.908;2024-03-22T04:48:39;8.50;99.90
48836;DHT22;62581;47.342;7.908;2024-03-22T04:51:05;8.40;99.90
48836;DHT22;62581;47.342;7.908;2024-03-22T04:53:32;8.50;99.90
48836;DHT22;62581;47.342;7.908;2024-03-22T04:55:58;8.40;99.90
48836;DHT22;62581;47.342;7.908;2024-03-22T04:58:26;8.50;99.90
48836;DHT22;62581;47.342;7.908;2024-03-22T05:00:56;8.50;99.90
48836;DHT22;62581;47.342;7.908;2024-03-22T05:03:24;8.50;99.90
48836;DHT22;62581;47.342;7.908;2024-03-22T05:05:50;8.50;99.90
48836;DHT22;62581;47.342;7.908;2024-03-22T05:08:17;8.60;99.90
48836;DHT22;62581;47.342;7.908;2024-03-22T05:10:43;8.70;99.90
48836;DHT22;62581;47.342;7.908;2024-03-22T05:13:10;8.70;99.90
48836;DHT22;62581;47.342;7.908;2024-03-22T05:15:38;8.70;99.90
48836;DHT22;62581;47.342;7.908;2024-03-22T05:18:05;8.70;99.90
48836;DHT22;62581;47.342;7.908;2024-03-22T05:20:31;8.70;99.90
48836;DHT22;62581;47.342;7.908;2024-03-22T05:22:59;8.90;99.90
48836;DHT22;62581;47.342;7.908;2024-03-22T05:25:25;8.70;99.90
48836;DHT22;62581;47.342;7.908;2024-03-22T05:27:52;8.70;99.90
48836;DHT22;62581;47.342;7.908;2024-03-22T05:30:18;8.70;99.90
48836;DHT22;62581;47.342;7.908;2024-03-22T05:32:46;8.70;99.90
48836;DHT22;62581;47.342;7.908;2024-03-22T05:35:12;8.70;99.90
48836;DHT22;62581;47.342;7.908;2024-03-22T05:37:39;8.70;99.90
48836;DHT22;62581;47.342;7.908;2024-03-22T05:40:06;8.60;99.90
48836;DHT22;62581;47.342;7.908;2024-03-22T05:42:34;8.60;99.90
48836;DHT22;62581;47.342;7.908;2024-03-22T05:45:00;8.60;99.90
48836;DHT22;62581;47.342;7.908;2024-03-22T05:47:28;8.70;99.90
48836;DHT22;62581;47.342;7.908;2024-03-22T05:49:58;8.70;99.90
48836;DHT22;62581;47.342;7.908;2024-03-22T05:52:25;8.70;99.90
48836;DHT22;62581;47.342;7.908;2024-03-22T05:54:51;8.70;99.90
48836;DHT22;62581;47.342;7.908;2024-03-22T05:57:17;8.70;99.90
48836;DHT22;62581;47.342;7.908;2024-03-22T05:59:44;8.70;99.90
48836;DHT22;62581;47.342;7.908;2024-03-22T06:02:10;8.70;99.90
48836;DHT22;62581;47.342;7.908;2024-03-22T06:04:37;8.70;99.90
48836;DHT22;62581;47.342;7.908;2024-03-22T06:07:04;8.70;99.90
48836;DHT22;62581;47.342;7.908;2024-03-22T06:09:32;8.70;99.90
48836;DHT22;62581;47.342;7.908;2024-03-22T06:12:04;8.70;99.90
48836;DHT22;62581;47.342;7.908;2024-03-22T06:14:31;8.70;99.90
48836;DHT22;62581;47.342;7.908;2024-03-22T06:16:57;8.70;99.90
48836;DHT22;62581;47.342;7.908;2024-03-22T06:19:24;8.80;99.90
48836;DHT22;62581;47.342;7.908;2024-03-22T06:21:51;8.80;99.90
48836;DHT22;62581;47.342;7.908;2024-03-22T06:24:20;8.90;99.90
48836;DHT22;62581;47.342;7.908;2024-03-22T06:26:46;8.90;99.90
48836;DHT22;62581;47.342;7.908;2024-03-22T06:29:14;9.00;99.90
48836;DHT22;62581;47.342;7.908;2024-03-22T06:31:42;9.00;99.90
48836;DHT22;62581;47.342;7.908;2024-03-22T06:34:09;9.10;99.90
48836;DHT22;62581;47.342;7.908;2024-03-22T06:36:35;9.10;99.90
48836;DHT22;62581;47.342;7.908;2024-03-22T06:39:02;9.10;99.90
48836;DHT22;62581;47.342;7.908;2024-03-22T06:41:31;9.20;99.90
48836;DHT22;62581;47.342;7.908;2024-03-22T06:43:58;9.20;99.90
48836;DHT22;62581;47.342;7.908;2024-03-22T06:46:24;9.20;99.90
48836;DHT22;62581;47.342;7.908;2024-03-22T06:48:52;9.40;99.90
48836;DHT22;62581;47.342;7.908;2024-03-22T06:51:18;9.40;99.90
48836;DHT22;62581;47.342;7.908;2024-03-22T06:53:45;9.50;99.90
48836;DHT22;62581;47.342;7.908;2024-03-22T06:56:11;9.50;99.90
48836;DHT22;62581;47.342;7.908;2024-03-22T06:58:40;9.60;99.90
48836;DHT22;62581;47.342;7.908;2024-03-22T07:01:06;9.70;99.90
48836;DHT22;62581;47.342;7.908;2024-03-22T07:03:33;9.80;99.90
48836;DHT22;62581;47.342;7.908;2024-03-22T07:05:59;9.90;99.90
48836;DHT22;62581;47.342;7.908;2024-03-22T07:08:26;9.90;99.90
48836;DHT22;62581;47.342;7.908;2024-03-22T07:10:52;10.00;99.90
48836;DHT22;62581;47.342;7.908;2024-03-22T07:13:20;10.10;99.90
48836;DHT22;62581;47.342;7.908;2024-03-22T07:15:47;10.10;99.90
48836;DHT22;62581;47.342;7.908;2024-03-22T07:18:14;10.20;99.90
48836;DHT22;62581;47.342;7.908;2024-03-22T07:20:41;10.30;99.90
48836;DHT22;62581;47.342;7.908;2024-03-22T07:23:08;10.30;99.90
48836;DHT22;62581;47.342;7.908;2024-03-22T07:25:34;10.20;99.90
48836;DHT22;62581;47.342;7.908;2024-03-22T07:28:01;10.30;99.90
48836;DHT22;62581;47.342;7.908;2024-03-22T07:30:27;10.30;99.90
48836;DHT22;62581;47.342;7.908;2024-03-22T07:32:55;10.40;99.90
48836;DHT22;62581;47.342;7.908;2024-03-22T07:35:22;10.50;99.90
48836;DHT22;62581;47.342;7.908;2024-03-22T07:37:50;10.50;99.90
48836;DHT22;62581;47.342;7.908;2024-03-22T07:40:16;10.60;99.90
48836;DHT22;62581;47.342;7.908;2024-03-22T07:42:43;10.70;99.90
48836;DHT22;62581;47.342;7.908;2024-03-22T07:45:09;10.80;99.90
48836;DHT22;62581;47.342;7.908;2024-03-22T07:47:36;10.90;99.90
48836;DHT22;62581;47.342;7.908;2024-03-22T07:50:05;11.00;99.90
48836;DHT22;62581;47.342;7.908;2024-03-22T07:52:32;11.10;99.90
48836;DHT22;62581;47.342;7.908;2024-03-22T07:54:58;11.20;99.90
48836;DHT22;62581;47.342;7.908;2024-03-22T07:57:27;11.20;99.90
48836;DHT22;62581;47.342;7.908;2024-03-22T07:59:53;11.30;99.90
48836;DHT22;62581;47.342;7.908;2024-03-22T08:02:20;11.40;99.90
48836;DHT22;62581;47.342;7.908;2024-03-22T08:04:46;11.50;99.90
48836;DHT22;62581;47.342;7.908;2024-03-22T08:07:15;11.60;99.90
48836;DHT22;62581;47.342;7.908;2024-03-22T08:09:41;11.60;99.90
48836;DHT22;62581;47.342;7.908;2024-03-22T08:12:08;11.60;99.90
48836;DHT22;62581;47.342;7.908;2024-03-22T08:14:35;11.80;99.90
48836;DHT22;62581;47.342;7.908;2024-03-22T08:17:02;11.90;99.90
48836;DHT22;62581;47.342;7.908;2024-03-22T08:19:29;11.90;99.90
48836;DHT22;62581;47.342;7.908;2024-03-22T08:21:55;12.10;99.90
48836;DHT22;62581;47.342;7.908;2024-03-22T08:24:23;12.20;99.90
48836;DHT22;62581;47.342;7.908;2024-03-22T08:26:50;12.20;99.90
48836;DHT22;62581;47.342;7.908;2024-03-22T08:29:16;12.20;99.90
48836;DHT22;62581;47.342;7.908;2024-03-22T08:31:43;12.10;99.90
48836;DHT22;62581;47.342;7.908;2024-03-22T08:34:09;12.20;99.90
48836;DHT22;62581;47.342;7.908;2024-03-22T08:36:36;12.10;99.90
48836;DHT22;62581;47.342;7.908;2024-03-22T08:39:02;12.10;99.90
48836;DHT22;62581;47.342;7.908;2024-03-22T08:41:32;12.10;99.90
48836;DHT22;62581;47.342;7.908;2024-03-22T08:43:58;12.10;99.90
48836;DHT22;62581;47.342;7.908;2024-03-22T08:46:25;12.10;99.90
48836;DHT22;62581;47.342;7.908;2024-03-22T08:48:52;12.10;99.90
48836;DHT22;62581;47.342;7.908;2024-03-22T08:51:21;12.10;99.90
48836;DHT22;62581;47.342;7.908;2024-03-22T08:53:47;12.10;99.90
48836;DHT22;62581;47.342;7.908;2024-03-22T08:56:14;12.00;99.90
48836;DHT22;62581;47.342;7.908;2024-03-22T08:58:41;12.10;99.90
48836;DHT22;62581;47.342;7.908;2024-03-22T09:01:08;12.10;99.90
48836;DHT22;62581;47.342;7.908;2024-03-22T09:03:36;12.10;99.90
48836;DHT22;62581;47.342;7.908;2024-03-22T09:06:03;12.20;99.90
48836;DHT22;62581;47.342;7.908;2024-03-22T09:08:29;12.30;99.90
48836;DHT22;62581;47.342;7.908;2024-03-22T09:10:56;12.40;99.90
48836;DHT22;62581;47.342;7.908;2024-03-22T09:13:22;12.40;99.90
48836;DHT22;62581;47.342;7.908;2024-03-22T09:15:56;12.50;99.90
48836;DHT22;62581;47.342;7.908;2024-03-22T09:18:22;12.60;99.90
48836;DHT22;62581;47.342;7.908;2024-03-22T09:20:49;12.70;99.90
48836;DHT22;62581;47.342;7.908;2024-03-22T09:23:15;12.80;99.90
48836;DHT22;62581;47.342;7.908;2024-03-22T09:25:42;12.90;99.90
48836;DHT22;62581;47.342;7.908;2024-03-22T09:28:08;12.90;99.90
48836;DHT22;62581;47.342;7.908;2024-03-22T09:30:38;13.10;99.90
48836;DHT22;62581;47.342;7.908;2024-03-22T09:33:06;13.10;99.90
48836;DHT22;62581;47.342;7.908;2024-03-22T09:35:33;13.10;99.90
48836;DHT22;62581;47.342;7.908;2024-03-22T09:38:00;13.20;99.90
48836;DHT22;62581;47.342;7.908;2024-03-22T09:40:27;13.20;99.90
48836;DHT22;62581;47.342;7.908;2024-03-22T09:42:53;13.40;99.90
48836;DHT22;62581;47.342;7.908;2024-03-22T09:45:20;13.50;99.90
48836;DHT22;62581;47.342;7.908;2024-03-22T09:47:48;13.70;99.90
48836;DHT22;62581;47.342;7.908;2024-03-22T09:50:18;13.90;99.90
48836;DHT22;62581;47.342;7.908;2024-03-22T09:52:45;13.90;99.90
48836;DHT22;62581;47.342;7.908;2024-03-22T09:55:12;14.00;99.90
48836;DHT22;62581;47.342;7.908;2024-03-22T09:57:39;14.10;99.90
48836;DHT22;62581;47.342;7.908;2024-03-22T10:00:09;14.30;99.90
48836;DHT22;62581;47.342;7.908;2024-03-22T10:02:36;14.40;99.90
48836;DHT22;62581;47.342;7.908;2024-03-22T10:05:04;14.50;99.90
48836;DHT22;62581;47.342;7.908;2024-03-22T10:07:32;14.50;99.90
48836;DHT22;62581;47.342;7.908;2024-03-22T10:09:59;14.60;99.90
48836;DHT22;62581;47.342;7.908;2024-03-22T10:12:25;14.70;99.90
48836;DHT22;62581;47.342;7.908;2024-03-22T10:14:52;14.90;99.90
48836;DHT22;62581;47.342;7.908;2024-03-22T10:17:19;14.90;99.90
48836;DHT22;62581;47.342;7.908;2024-03-22T10:19:48;15.10;99.90
48836;DHT22;62581;47.342;7.908;2024-03-22T10:22:16;15.20;99.90
48836;DHT22;62581;47.342;7.908;2024-03-22T10:24:44;15.40;99.90
48836;DHT22;62581;47.342;7.908;2024-03-22T10:27:10;15.60;99.90
48836;DHT22;62581;47.342;7.908;2024-03-22T10:29:37;15.80;99.90
48836;DHT22;62581;47.342;7.908;2024-03-22T10:32:04;15.90;99.90
48836;DHT22;62581;47.342;7.908;2024-03-22T10:34:33;16.10;99.90
48836;DHT22;62581;47.342;7.908;2024-03-22T10:37:00;16.30;99.90
48836;DHT22;62581;47.342;7.908;2024-03-22T10:39:28;16.50;99.90
48836;DHT22;62581;47.342;7.908;2024-03-22T10:41:57;16.50;99.90
48836;DHT22;62581;47.342;7.908;2024-03-22T10:44:24;16.70;99.90
48836;DHT22;62581;47.342;7.908;2024-03-22T10:46:52;16.90;99.90
48836;DHT22;62581;47.342;7.908;2024-03-22T10:49:20;17.00;99.90
48836;DHT22;62581;47.342;7.908;2024-03-22T10:51:49;17.00;99.90
48836;DHT22;62581;47.342;7.908;2024-03-22T10:54:21;17.10;99.90
48836;DHT22;62581;47.342;7.908;2024-03-22T10:56:48;17.30;99.90
48836;DHT22;62581;47.342;7.908;2024-03-22T10:59:20;17.40;99.90
48836;DHT22;62581;47.342;7.908;2024-03-22T11:01:48;17.50;99.90
48836;DHT22;62581;47.342;7.908;2024-03-22T11:04:16;17.60;99.90
48836;DHT22;62581;47.342;7.908;2024-03-22T11:06:47;17.60;99.90
48836;DHT22;62581;47.342;7.908;2024-03-22T11:09:19;17.60;99.90
48836;DHT22;62581;47.342;7.908;2024-03-22T11:11:47;17.70;99.90
48836;DHT22;62581;47.342;7.908;2024-03-22T11:14:14;17.90;99.90
48836;DHT22;62581;47.342;7.908;2024-03-22T11:16:44;17.90;99.90
48836;DHT22;62581;47.342;7.908;2024-03-22T11:19:11;18.00;99.90
48836;DHT22;62581;47.342;7.908;2024-03-22T11:21:37;18.10;99.90
48836;DHT22;62581;47.342;7.908;2024-03-22T11:24:05;18.10;99.90
48836;DHT22;62581;47.342;7.908;2024-03-22T11:26:31;18.30;99.90
48836;DHT22;62581;47.342;7.908;2024-03-22T11:28:58;18.40;99.90
48836;DHT22;62581;47.342;7.908;2024-03-22T11:31:24;18.50;99.90
48836;DHT22;62581;47.342;7.908;2024-03-22T11:33:54;18.60;99.90
48836;DHT22;62581;47.342;7.908;2024-03-22T11:36:20;18.70;99.90
48836;DHT22;62581;47.342;7.908;2024-03-22T11:38:47;18.70;99.90
48836;DHT22;62581;47.342;7.908;2024-03-22T11:41:16;18.70;99.90
48836;DHT22;62581;47.342;7.908;2024-03-22T11:43:44;18.70;99.90
48836;DHT22;62581;47.342;7.908;2024-03-22T11:46:11;18.90;99.90
48836;DHT22;62581;47.342;7.908;2024-03-22T11:48:39;19.00;99.90
48836;DHT22;62581;47.342;7.908;2024-03-22T11:51:07;19.00;99.90
48836;DHT22;62581;47.342;7.908;2024-03-22T11:53:34;19.10;99.90
48836;DHT22;62581;47.342;7.908;2024-03-22T11:56:00;19.10;99.90
48836;DHT22;62581;47.342;7.908;2024-03-22T11:58:29;19.20;99.90
48836;DHT22;62581;47.342;7.908;2024-03-22T12:00:55;19.30;99.90
48836;DHT22;62581;47.342;7.908;2024-03-22T12:03:23;19.30;99.90
48836;DHT22;62581;47.342;7.908;2024-03-22T12:05:49;19.40;99.90
48836;DHT22;62581;47.342;7.908;2024-03-22T12:08:18;19.60;99.90
48836;DHT22;62581;47.342;7.908;2024-03-22T12:10:44;20.20;99.90
48836;DHT22;62581;47.342;7.908;2024-03-22T12:13:11;20.90;99.90
48836;DHT22;62581;47.342;7.908;2024-03-22T12:15:37;21.60;99.90
48836;DHT22;62581;47.342;7.908;2024-03-22T12:18:04;22.20;99.90
48836;DHT22;62581;47.342;7.908;2024-03-22T12:20:30;22.80;99.90
48836;DHT22;62581;47.342;7.908;2024-03-22T12:22:57;23.50;99.60
48836;DHT22;62581;47.342;7.908;2024-03-22T12:25:25;24.30;98.20
48836;DHT22;62581;47.342;7.908;2024-03-22T12:27:52;25.30;97.50
48836;DHT22;62581;47.342;7.908;2024-03-22T12:30:18;26.00;94.10
48836;DHT22;62581;47.342;7.908;2024-03-22T12:32:45;26.50;91.40
48836;DHT22;62581;47.342;7.908;2024-03-22T12:35:11;26.70;91.00
48836;DHT22;62581;47.342;7.908;2024-03-22T12:37:38;26.50;91.80
48836;DHT22;62581;47.342;7.908;2024-03-22T12:40:06;26.70;91.10
48836;DHT22;62581;47.342;7.908;2024-03-22T12:42:36;27.40;89.10
48836;DHT22;62581;47.342;7.908;2024-03-22T12:45:03;27.50;87.70
48836;DHT22;62581;47.342;7.908;2024-03-22T12:47:30;28.10;84.30
48836;DHT22;62581;47.342;7.908;2024-03-22T12:49:56;28.50;82.60
48836;DHT22;62581;47.342;7.908;2024-03-22T12:52:23;28.70;80.80
48836;DHT22;62581;47.342;7.908;2024-03-22T12:54:49;28.70;79.50
48836;DHT22;62581;47.342;7.908;2024-03-22T12:57:15;28.50;78.80
48836;DHT22;62581;47.342;7.908;2024-03-22T12:59:43;27.90;80.30
48836;DHT22;62581;47.342;7.908;2024-03-22T13:02:12;27.60;80.40
48836;DHT22;62581;47.342;7.908;2024-03-22T13:04:38;27.00;80.90
48836;DHT22;62581;47.342;7.908;2024-03-22T13:07:05;26.80;82.70
48836;DHT22;62581;47.342;7.908;2024-03-22T13:09:31;27.30;80.90
48836;DHT22;62581;47.342;7.908;2024-03-22T13:11:58;27.70;79.70
48836;DHT22;62581;47.342;7.908;2024-03-22T13:14:24;27.50;80.50
48836;DHT22;62581;47.342;7.908;2024-03-22T13:16:54;28.20;79.20
48836;DHT22;62581;47.342;7.908;2024-03-22T13:19:20;28.80;77.90
48836;DHT22;62581;47.342;7.908;2024-03-22T13:21:47;29.30;76.50
48836;DHT22;62581;47.342;7.908;2024-03-22T13:24:14;29.30;75.80
48836;DHT22;62581;47.342;7.908;2024-03-22T13:26:41;27.70;78.30
48836;DHT22;62581;47.342;7.908;2024-03-22T13:29:07;26.80;80.20
48836;DHT22;62581;47.342;7.908;2024-03-22T13:31:34;25.80;81.10
48836;DHT22;62581;47.342;7.908;2024-03-22T13:34:02;25.60;82.40
48836;DHT22;62581;47.342;7.908;2024-03-22T13:36:29;25.50;82.50
48836;DHT22;62581;47.342;7.908;2024-03-22T13:38:58;25.70;83.50
48836;DHT22;62581;47.342;7.908;2024-03-22T13:41:25;26.70;81.70
48836;DHT22;62581;47.342;7.908;2024-03-22T13:43:51;27.30;80.00
48836;DHT22;62581;47.342;7.908;2024-03-22T13:46:18;27.20;79.50
48836;DHT22;62581;47.342;7.908;2024-03-22T13:48:44;26.90;78.90
48836;DHT22;62581;47.342;7.908;2024-03-22T13:51:12;27.50;79.50
48836;DHT22;62581;47.342;7.908;2024-03-22T13:53:38;28.40;77.80
48836;DHT22;62581;47.342;7.908;2024-03-22T13:56:06;29.40;75.40
48836;DHT22;62581;47.342;7.908;2024-03-22T13:58:32;29.80;73.80
48836;DHT22;62581;47.342;7.908;2024-03-22T14:01:00;29.90;72.00
48836;DHT22;62581;47.342;7.908;2024-03-22T14:03:26;30.20;71.40
48836;DHT22;62581;47.342;7.908;2024-03-22T14:05:53;30.00;71.10
48836;DHT22;62581;47.342;7.908;2024-03-22T14:08:20;30.30;70.70
48836;DHT22;62581;47.342;7.908;2024-03-22T14:10:47;30.00;71.60
48836;DHT22;62581;47.342;7.908;2024-03-22T14:13:13;30.20;70.10
48836;DHT22;62581;47.342;7.908;2024-03-22T14:15:41;29.40;70.80
48836;DHT22;62581;47.342;7.908;2024-03-22T14:18:07;29.80;70.90
48836;DHT22;62581;47.342;7.908;2024-03-22T14:20:34;30.00;68.20
48836;DHT22;62581;47.342;7.908;2024-03-22T14:23:00;29.30;70.40
48836;DHT22;62581;47.342;7.908;2024-03-22T14:25:31;29.80;69.30
48836;DHT22;62581;47.342;7.908;2024-03-22T14:27:57;30.40;69.30
48836;DHT22;62581;47.342;7.908;2024-03-22T14:30:24;31.00;67.30
48836;DHT22;62581;47.342;7.908;2024-03-22T14:32:50;31.20;66.80
48836;DHT22;62581;47.342;7.908;2024-03-22T14:35:18;31.40;65.80
48836;DHT22;62581;47.342;7.908;2024-03-22T14:37:44;32.00;65.20
48836;DHT22;62581;47.342;7.908;2024-03-22T14:40:11;32.40;62.80
48836;DHT22;62581;47.342;7.908;2024-03-22T14:42:38;31.70;63.40
48836;DHT22;62581;47.342;7.908;2024-03-22T14:45:06;30.80;65.60
48836;DHT22;62581;47.342;7.908;2024-03-22T14:47:35;29.50;65.40
48836;DHT22;62581;47.342;7.908;2024-03-22T14:50:02;29.20;67.10
48836;DHT22;62581;47.342;7.908;2024-03-22T14:52:29;28.40;67.80
48836;DHT22;62581;47.342;7.908;2024-03-22T14:54:56;27.30;68.80
48836;DHT22;62581;47.342;7.908;2024-03-22T14:57:22;27.40;69.70
48836;DHT22;62581;47.342;7.908;2024-03-22T14:59:51;28.00;69.20
48836;DHT22;62581;47.342;7.908;2024-03-22T15:02:18;28.10;69.30
48836;DHT22;62581;47.342;7.908;2024-03-22T15:04:45;29.50;67.90
48836;DHT22;62581;47.342;7.908;2024-03-22T15:07:11;31.10;65.60
48836;DHT22;62581;47.342;7.908;2024-03-22T15:09:38;31.30;63.60
48836;DHT22;62581;47.342;7.908;2024-03-22T15:12:05;29.90;65.00
48836;DHT22;62581;47.342;7.908;2024-03-22T15:14:34;29.90;65.30
48836;DHT22;62581;47.342;7.908;2024-03-22T15:17:01;29.90;64.10
48836;DHT22;62581;47.342;7.908;2024-03-22T15:19:28;31.10;64.20
48836;DHT22;62581;47.342;7.908;2024-03-22T15:21:54;30.70;63.80
48836;DHT22;62581;47.342;7.908;2024-03-22T15:24:21;31.90;62.60
48836;DHT22;62581;47.342;7.908;2024-03-22T15:26:47;33.00;60.90
48836;DHT22;62581;47.342;7.908;2024-03-22T15:29:14;33.60;83.00
48836;DHT22;62581;47.342;7.908;2024-03-22T15:31:40;33.20;59.60
48836;DHT22;62581;47.342;7.908;2024-03-22T15:34:08;32.50;60.10
48836;DHT22;62581;47.342;7.908;2024-03-22T15:36:34;33.10;59.70